sensor_id;sensor_type;location;lat;lon;timestamp;P1;durP1;ratioP1;P2;durP2;ratioP2
40046;SDS011;31510;48.122;11.576;2022-11-30T00:01:54;28.10;;;14.55;;
40046;SDS011;31510;48.122;11.576;2022-11-30T00:04:19;27.70;;;14.90;;
40046;SDS011;31510;48.122;11.576;2022-11-30T00:06:44;32.58;;;13.55;;
40046;SDS011;31510;48.122;11.576;2022-11-30T00:09:10;33.00;;;14.55;;
40046;SDS011;31510;48.122;11.576;2022-11-30T00:11:35;28.55;;;13.90;;
40046;SDS011;31510;48.122;11.576;2022-11-30T00:14:00;34.95;;;15.75;;
40046;SDS011;31510;48.122;11.576;2022-11-30T00:16:26;29.58;;;13.15;;
40046;SDS011;31510;48.122;11.576;2022-11-30T00:18:51;30.45;;;14.77;;
40046;SDS011;31510;48.122;11.576;2022-11-30T00:21:17;33.42;;;16.58;;
40046;SDS011;31510;48.122;11.576;2022-11-30T00:23:43;35.83;;;15.57;;
40046;SDS011;31510;48.122;11.576;2022-11-30T00:26:10;28.55;;;14.35;;
40046;SDS011;31510;48.122;11.576;2022-11-30T00:28:38;29.20;;;13.75;;
40046;SDS011;31510;48.122;11.576;2022-11-30T00:31:05;34.92;;;15.55;;
40046;SDS011;31510;48.122;11.576;2022-11-30T00:33:32;29.33;;;15.02;;
40046;SDS011;31510;48.122;11.576;2022-11-30T00:36:03;30.35;;;14.23;;
40046;SDS011;31510;48.122;11.576;2022-11-30T00:38:31;34.05;;;16.00;;
40046;SDS011;31510;48.122;11.576;2022-11-30T00:40:57;32.35;;;16.02;;
40046;SDS011;31510;48.122;11.576;2022-11-30T00:43:23;31.35;;;15.43;;
40046;SDS011;31510;48.122;11.576;2022-11-30T00:45:49;30.75;;;15.40;;
40046;SDS011;31510;48.122;11.576;2022-11-30T00:48:14;27.23;;;14.05;;
40046;SDS011;31510;48.122;11.576;2022-11-30T00:50:39;29.23;;;13.73;;
40046;SDS011;31510;48.122;11.576;2022-11-30T00:53:05;29.67;;;14.80;;
40046;SDS011;31510;48.122;11.576;2022-11-30T00:55:31;29.25;;;13.65;;
40046;SDS011;31510;48.122;11.576;2022-11-30T00:57:57;25.20;;;13.80;;
40046;SDS011;31510;48.122;11.576;2022-11-30T01:00:23;28.58;;;14.77;;
40046;SDS011;31510;48.122;11.576;2022-11-30T01:02:52;32.60;;;14.85;;
40046;SDS011;31510;48.122;11.576;2022-11-30T01:05:18;34.55;;;15.60;;
40046;SDS011;31510;48.122;11.576;2022-11-30T01:07:43;34.22;;;16.02;;
40046;SDS011;31510;48.122;11.576;2022-11-30T01:10:09;31.52;;;14.48;;
40046;SDS011;31510;48.122;11.576;2022-11-30T01:12:34;35.72;;;17.02;;
40046;SDS011;31510;48.122;11.576;2022-11-30T01:14:59;33.25;;;16.20;;
40046;SDS011;31510;48.122;11.576;2022-11-30T01:17:25;37.42;;;18.10;;
40046;SDS011;31510;48.122;11.576;2022-11-30T01:19:50;30.88;;;15.75;;
40046;SDS011;31510;48.122;11.576;2022-11-30T01:22:15;36.33;;;16.10;;
40046;SDS011;31510;48.122;11.576;2022-11-30T01:24:40;32.25;;;16.23;;
40046;SDS011;31510;48.122;11.576;2022-11-30T01:27:06;32.80;;;15.40;;
40046;SDS011;31510;48.122;11.576;2022-11-30T01:29:31;33.83;;;16.35;;
40046;SDS011;31510;48.122;11.576;2022-11-30T01:31:56;28.13;;;15.25;;
40046;SDS011;31510;48.122;11.576;2022-11-30T01:34:22;35.50;;;16.73;;
40046;SDS011;31510;48.122;11.576;2022-11-30T01:36:47;31.77;;;15.15;;
40046;SDS011;31510;48.122;11.576;2022-11-30T01:39:12;28.42;;;15.13;;
40046;SDS011;31510;48.122;11.576;2022-11-30T01:41:38;34.88;;;17.23;;
40046;SDS011;31510;48.122;11.576;2022-11-30T01:46:31;39.03;;;18.27;;
40046;SDS011;31510;48.122;11.576;2022-11-30T01:51:36;39.30;;;17.80;;
40046;SDS011;31510;48.122;11.576;2022-11-30T01:54:07;34.13;;;16.05;;
40046;SDS011;31510;48.122;11.576;2022-11-30T01:56:34;38.40;;;17.30;;
40046;SDS011;31510;48.122;11.576;2022-11-30T01:59:01;39.08;;;16.85;;
40046;SDS011;31510;48.122;11.576;2022-11-30T02:01:27;32.00;;;17.15;;
40046;SDS011;31510;48.122;11.576;2022-11-30T02:03:58;37.33;;;16.02;;
40046;SDS011;31510;48.122;11.576;2022-11-30T02:06:26;36.70;;;18.17;;
40046;SDS011;31510;48.122;11.576;2022-11-30T02:08:52;36.60;;;16.63;;
40046;SDS011;31510;48.122;11.576;2022-11-30T02:11:19;40.00;;;17.52;;
40046;SDS011;31510;48.122;11.576;2022-11-30T02:27:44;39.03;;;17.80;;
40046;SDS011;31510;48.122;11.576;2022-11-30T02:30:36;37.80;;;16.85;;
40046;SDS011;31510;48.122;11.576;2022-11-30T02:33:06;35.83;;;18.38;;
40046;SDS011;31510;48.122;11.576;2022-11-30T02:35:35;34.75;;;17.73;;
40046;SDS011;31510;48.122;11.576;2022-11-30T02:38:04;35.15;;;17.60;;
40046;SDS011;31510;48.122;11.576;2022-11-30T02:40:30;39.28;;;17.48;;
40046;SDS011;31510;48.122;11.576;2022-11-30T02:42:56;36.13;;;17.23;;
40046;SDS011;31510;48.122;11.576;2022-11-30T02:48:10;33.95;;;16.60;;
40046;SDS011;31510;48.122;11.576;2022-11-30T02:50:43;35.33;;;17.50;;
40046;SDS011;31510;48.122;11.576;2022-11-30T02:53:11;39.97;;;17.48;;
40046;SDS011;31510;48.122;11.576;2022-11-30T02:55:37;35.60;;;17.30;;
40046;SDS011;31510;48.122;11.576;2022-11-30T02:58:03;36.67;;;16.80;;
40046;SDS011;31510;48.122;11.576;2022-11-30T03:00:29;31.70;;;15.70;;
40046;SDS011;31510;48.122;11.576;2022-11-30T03:02:54;34.28;;;17.02;;
40046;SDS011;31510;48.122;11.576;2022-11-30T03:05:20;29.88;;;15.60;;
40046;SDS011;31510;48.122;11.576;2022-11-30T03:07:45;29.35;;;13.07;;
40046;SDS011;31510;48.122;11.576;2022-11-30T03:10:10;27.80;;;13.18;;
40046;SDS011;31510;48.122;11.576;2022-11-30T03:12:36;30.90;;;13.07;;
40046;SDS011;31510;48.122;11.576;2022-11-30T03:15:01;26.70;;;11.90;;
40046;SDS011;31510;48.122;11.576;2022-11-30T03:17:26;26.13;;;12.02;;
40046;SDS011;31510;48.122;11.576;2022-11-30T03:19:51;24.67;;;11.80;;
40046;SDS011;31510;48.122;11.576;2022-11-30T03:22:17;26.60;;;12.88;;
40046;SDS011;31510;48.122;11.576;2022-11-30T03:24:42;32.05;;;15.40;;
40046;SDS011;31510;48.122;11.576;2022-11-30T03:27:07;30.63;;;13.52;;
40046;SDS011;31510;48.122;11.576;2022-11-30T03:29:33;31.45;;;14.55;;
40046;SDS011;31510;48.122;11.576;2022-11-30T03:31:58;27.55;;;13.52;;
40046;SDS011;31510;48.122;11.576;2022-11-30T03:34:23;28.85;;;13.93;;
40046;SDS011;31510;48.122;11.576;2022-11-30T03:36:51;30.33;;;15.18;;
40046;SDS011;31510;48.122;11.576;2022-11-30T03:39:16;31.08;;;15.00;;
40046;SDS011;31510;48.122;11.576;2022-11-30T03:41:41;30.08;;;13.63;;
40046;SDS011;31510;48.122;11.576;2022-11-30T03:44:07;32.83;;;14.77;;
40046;SDS011;31510;48.122;11.576;2022-11-30T03:46:32;38.72;;;16.05;;
40046;SDS011;31510;48.122;11.576;2022-11-30T03:48:58;30.58;;;14.38;;
40046;SDS011;31510;48.122;11.576;2022-11-30T03:51:23;36.28;;;17.73;;
40046;SDS011;31510;48.122;11.576;2022-11-30T03:53:48;31.95;;;14.88;;
40046;SDS011;31510;48.122;11.576;2022-11-30T03:56:14;35.03;;;15.68;;
40046;SDS011;31510;48.122;11.576;2022-11-30T03:58:39;33.67;;;16.25;;
40046;SDS011;31510;48.122;11.576;2022-11-30T04:01:06;30.33;;;14.38;;
40046;SDS011;31510;48.122;11.576;2022-11-30T04:06:01;32.63;;;14.85;;
40046;SDS011;31510;48.122;11.576;2022-11-30T04:08:28;35.13;;;15.95;;
40046;SDS011;31510;48.122;11.576;2022-11-30T04:10:54;31.88;;;14.52;;
40046;SDS011;31510;48.122;11.576;2022-11-30T04:13:21;34.60;;;15.95;;
40046;SDS011;31510;48.122;11.576;2022-11-30T04:15:48;37.67;;;15.75;;
40046;SDS011;31510;48.122;11.576;2022-11-30T04:18:14;32.83;;;14.80;;
40046;SDS011;31510;48.122;11.576;2022-11-30T04:20:40;34.60;;;15.98;;
40046;SDS011;31510;48.122;11.576;2022-11-30T04:23:05;39.17;;;15.98;;
40046;SDS011;31510;48.122;11.576;2022-11-30T04:25:31;34.30;;;15.63;;
40046;SDS011;31510;48.122;11.576;2022-11-30T04:27:56;36.83;;;16.48;;
40046;SDS011;31510;48.122;11.576;2022-11-30T04:30:22;29.63;;;15.18;;
40046;SDS011;31510;48.122;11.576;2022-11-30T04:32:47;33.00;;;16.25;;
40046;SDS011;31510;48.122;11.576;2022-11-30T04:35:12;30.42;;;15.07;;
40046;SDS011;31510;48.122;11.576;2022-11-30T04:37:38;33.42;;;15.43;;
40046;SDS011;31510;48.122;11.576;2022-11-30T04:40:03;32.78;;;14.88;;
40046;SDS011;31510;48.122;11.576;2022-11-30T04:42:29;31.30;;;13.82;;
40046;SDS011;31510;48.122;11.576;2022-11-30T04:44:54;33.25;;;15.20;;
40046;SDS011;31510;48.122;11.576;2022-11-30T04:47:19;30.80;;;14.70;;
40046;SDS011;31510;48.122;11.576;2022-11-30T04:49:45;29.52;;;14.27;;
40046;SDS011;31510;48.122;11.576;2022-11-30T04:52:10;31.13;;;15.30;;
40046;SDS011;31510;48.122;11.576;2022-11-30T04:54:35;28.48;;;14.05;;
40046;SDS011;31510;48.122;11.576;2022-11-30T04:57:00;33.97;;;14.98;;
40046;SDS011;31510;48.122;11.576;2022-11-30T04:59:26;32.72;;;14.65;;
40046;SDS011;31510;48.122;11.576;2022-11-30T05:01:51;32.40;;;14.93;;
40046;SDS011;31510;48.122;11.576;2022-11-30T05:04:16;34.50;;;15.48;;
40046;SDS011;31510;48.122;11.576;2022-11-30T05:06:42;33.60;;;15.07;;
40046;SDS011;31510;48.122;11.576;2022-11-30T05:09:07;32.20;;;15.40;;
40046;SDS011;31510;48.122;11.576;2022-11-30T05:11:32;29.85;;;15.57;;
40046;SDS011;31510;48.122;11.576;2022-11-30T05:13:58;33.55;;;15.55;;
40046;SDS011;31510;48.122;11.576;2022-11-30T05:16:23;33.78;;;14.88;;
40046;SDS011;31510;48.122;11.576;2022-11-30T05:18:48;31.92;;;15.45;;
40046;SDS011;31510;48.122;11.576;2022-11-30T05:21:13;34.97;;;14.98;;
40046;SDS011;31510;48.122;11.576;2022-11-30T05:23:39;35.85;;;15.20;;
40046;SDS011;31510;48.122;11.576;2022-11-30T05:26:04;28.98;;;14.68;;
40046;SDS011;31510;48.122;11.576;2022-11-30T05:28:30;34.97;;;16.00;;
40046;SDS011;31510;48.122;11.576;2022-11-30T05:31:00;31.75;;;14.80;;
40046;SDS011;31510;48.122;11.576;2022-11-30T05:33:26;32.20;;;14.13;;
40046;SDS011;31510;48.122;11.576;2022-11-30T05:38:19;28.77;;;12.90;;
40046;SDS011;31510;48.122;11.576;2022-11-30T05:40:45;33.05;;;13.20;;
40046;SDS011;31510;48.122;11.576;2022-11-30T05:43:10;30.88;;;14.23;;
40046;SDS011;31510;48.122;11.576;2022-11-30T05:45:36;28.60;;;13.73;;
40046;SDS011;31510;48.122;11.576;2022-11-30T05:48:02;34.45;;;13.60;;
40046;SDS011;31510;48.122;11.576;2022-11-30T05:50:27;25.75;;;12.23;;
40046;SDS011;31510;48.122;11.576;2022-11-30T05:52:53;27.10;;;13.27;;
40046;SDS011;31510;48.122;11.576;2022-11-30T05:55:20;27.77;;;13.10;;
40046;SDS011;31510;48.122;11.576;2022-11-30T05:57:46;29.35;;;12.93;;
40046;SDS011;31510;48.122;11.576;2022-11-30T06:00:11;26.83;;;11.85;;
40046;SDS011;31510;48.122;11.576;2022-11-30T06:02:37;24.70;;;11.98;;
40046;SDS011;31510;48.122;11.576;2022-11-30T06:05:02;22.40;;;11.27;;
40046;SDS011;31510;48.122;11.576;2022-11-30T06:07:28;26.52;;;12.38;;
40046;SDS011;31510;48.122;11.576;2022-11-30T06:09:53;22.75;;;12.55;;
40046;SDS011;31510;48.122;11.576;2022-11-30T06:12:18;26.02;;;12.77;;
40046;SDS011;31510;48.122;11.576;2022-11-30T06:14:44;27.13;;;13.68;;
40046;SDS011;31510;48.122;11.576;2022-11-30T06:17:09;28.70;;;12.85;;
40046;SDS011;31510;48.122;11.576;2022-11-30T06:19:34;27.85;;;13.80;;
40046;SDS011;31510;48.122;11.576;2022-11-30T06:21:59;24.90;;;14.02;;
40046;SDS011;31510;48.122;11.576;2022-11-30T06:24:25;26.23;;;12.38;;
40046;SDS011;31510;48.122;11.576;2022-11-30T06:26:50;23.38;;;12.73;;
40046;SDS011;31510;48.122;11.576;2022-11-30T06:29:15;24.30;;;11.85;;
40046;SDS011;31510;48.122;11.576;2022-11-30T06:31:41;26.42;;;12.27;;
40046;SDS011;31510;48.122;11.576;2022-11-30T06:34:06;28.88;;;13.68;;
40046;SDS011;31510;48.122;11.576;2022-11-30T06:36:31;27.05;;;11.77;;
40046;SDS011;31510;48.122;11.576;2022-11-30T06:38:57;26.20;;;12.52;;
40046;SDS011;31510;48.122;11.576;2022-11-30T06:41:22;27.70;;;12.07;;
40046;SDS011;31510;48.122;11.576;2022-11-30T06:43:48;21.67;;;10.85;;
40046;SDS011;31510;48.122;11.576;2022-11-30T06:46:13;25.60;;;12.60;;
40046;SDS011;31510;48.122;11.576;2022-11-30T06:48:38;22.85;;;11.18;;
40046;SDS011;31510;48.122;11.576;2022-11-30T06:51:04;24.80;;;12.32;;
40046;SDS011;31510;48.122;11.576;2022-11-30T06:53:33;26.75;;;12.57;;
40046;SDS011;31510;48.122;11.576;2022-11-30T06:56:02;19.15;;;10.10;;
40046;SDS011;31510;48.122;11.576;2022-11-30T06:58:31;27.77;;;11.30;;
40046;SDS011;31510;48.122;11.576;2022-11-30T07:00:57;21.42;;;10.60;;
40046;SDS011;31510;48.122;11.576;2022-11-30T07:03:22;21.65;;;10.65;;
40046;SDS011;31510;48.122;11.576;2022-11-30T07:05:47;24.05;;;12.70;;
40046;SDS011;31510;48.122;11.576;2022-11-30T07:08:13;22.98;;;12.27;;
40046;SDS011;31510;48.122;11.576;2022-11-30T07:10:40;25.15;;;11.20;;
40046;SDS011;31510;48.122;11.576;2022-11-30T07:13:10;26.35;;;11.80;;
40046;SDS011;31510;48.122;11.576;2022-11-30T07:15:37;21.85;;;11.05;;
40046;SDS011;31510;48.122;11.576;2022-11-30T07:18:03;23.08;;;12.13;;
40046;SDS011;31510;48.122;11.576;2022-11-30T07:20:28;20.52;;;10.85;;
40046;SDS011;31510;48.122;11.576;2022-11-30T07:22:54;23.98;;;11.63;;
40046;SDS011;31510;48.122;11.576;2022-11-30T07:25:20;22.17;;;11.35;;
40046;SDS011;31510;48.122;11.576;2022-11-30T07:28:04;23.77;;;10.52;;
40046;SDS011;31510;48.122;11.576;2022-11-30T07:30:31;27.20;;;11.85;;
40046;SDS011;31510;48.122;11.576;2022-11-30T07:32:56;26.83;;;13.52;;
40046;SDS011;31510;48.122;11.576;2022-11-30T07:35:21;32.92;;;11.95;;
40046;SDS011;31510;48.122;11.576;2022-11-30T07:37:47;35.55;;;13.75;;
40046;SDS011;31510;48.122;11.576;2022-11-30T07:40:12;26.92;;;12.45;;
40046;SDS011;31510;48.122;11.576;2022-11-30T07:42:37;29.55;;;13.55;;
40046;SDS011;31510;48.122;11.576;2022-11-30T07:45:03;28.40;;;13.57;;
40046;SDS011;31510;48.122;11.576;2022-11-30T07:47:28;26.60;;;12.93;;
40046;SDS011;31510;48.122;11.576;2022-11-30T07:49:54;24.80;;;12.27;;
40046;SDS011;31510;48.122;11.576;2022-11-30T07:52:19;23.08;;;12.57;;
40046;SDS011;31510;48.122;11.576;2022-11-30T07:54:44;29.58;;;13.27;;
40046;SDS011;31510;48.122;11.576;2022-11-30T07:57:09;30.20;;;13.82;;
40046;SDS011;31510;48.122;11.576;2022-11-30T07:59:35;30.40;;;14.15;;
40046;SDS011;31510;48.122;11.576;2022-11-30T08:02:00;25.13;;;13.65;;
40046;SDS011;31510;48.122;11.576;2022-11-30T08:04:25;25.88;;;11.85;;
40046;SDS011;31510;48.122;11.576;2022-11-30T08:06:52;30.48;;;14.82;;
40046;SDS011;31510;48.122;11.576;2022-11-30T08:09:18;28.50;;;13.63;;
40046;SDS011;31510;48.122;11.576;2022-11-30T08:11:43;27.92;;;14.30;;
40046;SDS011;31510;48.122;11.576;2022-11-30T08:14:10;28.42;;;12.57;;
40046;SDS011;31510;48.122;11.576;2022-11-30T08:16:37;31.55;;;14.68;;
40046;SDS011;31510;48.122;11.576;2022-11-30T08:19:03;28.80;;;13.35;;
40046;SDS011;31510;48.122;11.576;2022-11-30T08:21:28;27.80;;;13.57;;
40046;SDS011;31510;48.122;11.576;2022-11-30T08:23:55;27.05;;;12.65;;
40046;SDS011;31510;48.122;11.576;2022-11-30T08:28:51;26.77;;;12.57;;
40046;SDS011;31510;48.122;11.576;2022-11-30T08:33:44;27.95;;;12.55;;
40046;SDS011;31510;48.122;11.576;2022-11-30T08:36:14;30.33;;;14.10;;
40046;SDS011;31510;48.122;11.576;2022-11-30T08:38:44;31.30;;;13.57;;
40046;SDS011;31510;48.122;11.576;2022-11-30T08:41:11;27.70;;;12.85;;
40046;SDS011;31510;48.122;11.576;2022-11-30T08:43:37;31.25;;;17.20;;
40046;SDS011;31510;48.122;11.576;2022-11-30T08:46:03;28.45;;;13.73;;
40046;SDS011;31510;48.122;11.576;2022-11-30T08:48:31;25.55;;;13.30;;
40046;SDS011;31510;48.122;11.576;2022-11-30T08:50:58;29.88;;;13.57;;
40046;SDS011;31510;48.122;11.576;2022-11-30T08:53:34;28.77;;;14.02;;
40046;SDS011;31510;48.122;11.576;2022-11-30T08:56:01;26.60;;;13.48;;
40046;SDS011;31510;48.122;11.576;2022-11-30T09:01:05;28.95;;;13.95;;
40046;SDS011;31510;48.122;11.576;2022-11-30T09:03:38;28.85;;;13.40;;
40046;SDS011;31510;48.122;11.576;2022-11-30T09:06:11;29.52;;;12.80;;
40046;SDS011;31510;48.122;11.576;2022-11-30T09:08:41;28.50;;;13.55;;
40046;SDS011;31510;48.122;11.576;2022-11-30T09:11:12;27.83;;;12.43;;
40046;SDS011;31510;48.122;11.576;2022-11-30T09:13:40;27.45;;;12.80;;
40046;SDS011;31510;48.122;11.576;2022-11-30T09:16:06;27.20;;;13.18;;
40046;SDS011;31510;48.122;11.576;2022-11-30T09:18:32;25.48;;;11.75;;
40046;SDS011;31510;48.122;11.576;2022-11-30T09:20:59;26.88;;;13.23;;
40046;SDS011;31510;48.122;11.576;2022-11-30T09:23:25;25.33;;;12.57;;
40046;SDS011;31510;48.122;11.576;2022-11-30T09:25:57;25.73;;;12.70;;
40046;SDS011;31510;48.122;11.576;2022-11-30T09:28:24;25.92;;;13.70;;
40046;SDS011;31510;48.122;11.576;2022-11-30T09:30:49;25.52;;;12.25;;
40046;SDS011;31510;48.122;11.576;2022-11-30T09:33:15;24.92;;;12.18;;
40046;SDS011;31510;48.122;11.576;2022-11-30T09:35:40;29.13;;;11.77;;
40046;SDS011;31510;48.122;11.576;2022-11-30T09:38:05;27.50;;;12.90;;
40046;SDS011;31510;48.122;11.576;2022-11-30T09:40:31;24.52;;;12.63;;
40046;SDS011;31510;48.122;11.576;2022-11-30T09:45:27;27.13;;;12.68;;
40046;SDS011;31510;48.122;11.576;2022-11-30T09:50:27;28.95;;;13.68;;
40046;SDS011;31510;48.122;11.576;2022-11-30T09:52:56;23.52;;;12.57;;
40046;SDS011;31510;48.122;11.576;2022-11-30T09:55:27;27.67;;;12.98;;
40046;SDS011;31510;48.122;11.576;2022-11-30T09:57:55;24.58;;;12.13;;
40046;SDS011;31510;48.122;11.576;2022-11-30T10:00:24;23.55;;;11.32;;
40046;SDS011;31510;48.122;11.576;2022-11-30T10:02:50;26.98;;;12.18;;
40046;SDS011;31510;48.122;11.576;2022-11-30T10:05:21;26.52;;;11.68;;
40046;SDS011;31510;48.122;11.576;2022-11-30T10:07:58;25.27;;;10.70;;
40046;SDS011;31510;48.122;11.576;2022-11-30T10:11:35;22.27;;;10.40;;
40046;SDS011;31510;48.122;11.576;2022-11-30T10:30:18;22.95;;;11.90;;
40046;SDS011;31510;48.122;11.576;2022-11-30T10:32:52;19.23;;;10.20;;
40046;SDS011;31510;48.122;11.576;2022-11-30T10:38:14;18.65;;;9.95;;
40046;SDS011;31510;48.122;11.576;2022-11-30T10:46:35;23.05;;;10.85;;
40046;SDS011;31510;48.122;11.576;2022-11-30T10:49:14;21.70;;;9.88;;
40046;SDS011;31510;48.122;11.576;2022-11-30T10:51:44;19.30;;;9.73;;
40046;SDS011;31510;48.122;11.576;2022-11-30T10:54:15;19.40;;;9.40;;
40046;SDS011;31510;48.122;11.576;2022-11-30T10:56:43;21.13;;;10.07;;
40046;SDS011;31510;48.122;11.576;2022-11-30T11:01:47;23.50;;;10.35;;
40046;SDS011;31510;48.122;11.576;2022-11-30T11:04:17;19.30;;;9.70;;
40046;SDS011;31510;48.122;11.576;2022-11-30T11:11:59;19.25;;;9.13;;
40046;SDS011;31510;48.122;11.576;2022-11-30T11:14:27;16.92;;;8.98;;
40046;SDS011;31510;48.122;11.576;2022-11-30T11:19:30;17.05;;;8.35;;
40046;SDS011;31510;48.122;11.576;2022-11-30T11:21:59;20.15;;;8.98;;
40046;SDS011;31510;48.122;11.576;2022-11-30T11:24:45;18.27;;;9.18;;
40046;SDS011;31510;48.122;11.576;2022-11-30T11:27:20;13.02;;;6.45;;
40046;SDS011;31510;48.122;11.576;2022-11-30T11:30:32;15.68;;;6.97;;
40046;SDS011;31510;48.122;11.576;2022-11-30T11:33:04;14.07;;;7.70;;
40046;SDS011;31510;48.122;11.576;2022-11-30T11:35:51;13.73;;;7.05;;
40046;SDS011;31510;48.122;11.576;2022-11-30T11:41:11;19.35;;;10.40;;
40046;SDS011;31510;48.122;11.576;2022-11-30T11:49:22;20.20;;;8.95;;
40046;SDS011;31510;48.122;11.576;2022-11-30T11:51:59;21.35;;;11.23;;
40046;SDS011;31510;48.122;11.576;2022-11-30T11:57:11;22.00;;;11.02;;
40046;SDS011;31510;48.122;11.576;2022-11-30T12:12:53;22.63;;;11.40;;
40046;SDS011;31510;48.122;11.576;2022-11-30T12:15:21;21.67;;;10.48;;
40046;SDS011;31510;48.122;11.576;2022-11-30T12:17:54;18.77;;;10.20;;
40046;SDS011;31510;48.122;11.576;2022-11-30T12:23:33;24.05;;;10.93;;
40046;SDS011;31510;48.122;11.576;2022-11-30T12:31:35;28.48;;;11.27;;
40046;SDS011;31510;48.122;11.576;2022-11-30T12:34:27;21.60;;;9.85;;
40046;SDS011;31510;48.122;11.576;2022-11-30T12:37:19;21.42;;;9.55;;
40046;SDS011;31510;48.122;11.576;2022-11-30T12:42:51;17.48;;;9.77;;
40046;SDS011;31510;48.122;11.576;2022-11-30T12:45:32;21.05;;;9.45;;
40046;SDS011;31510;48.122;11.576;2022-11-30T12:53:33;16.17;;;8.77;;
40046;SDS011;31510;48.122;11.576;2022-11-30T12:56:13;17.85;;;8.88;;
40046;SDS011;31510;48.122;11.576;2022-11-30T13:04:22;17.55;;;8.85;;
40046;SDS011;31510;48.122;11.576;2022-11-30T13:09:42;17.55;;;8.75;;
40046;SDS011;31510;48.122;11.576;2022-11-30T13:12:15;19.58;;;9.75;;
40046;SDS011;31510;48.122;11.576;2022-11-30T13:14:59;19.60;;;8.82;;
40046;SDS011;31510;48.122;11.576;2022-11-30T13:17:27;19.73;;;9.20;;
40046;SDS011;31510;48.122;11.576;2022-11-30T13:23:06;20.38;;;9.85;;
40046;SDS011;31510;48.122;11.576;2022-11-30T13:31:06;17.88;;;8.75;;
40046;SDS011;31510;48.122;11.576;2022-11-30T13:36:02;19.52;;;9.73;;
40046;SDS011;31510;48.122;11.576;2022-11-30T13:38:45;17.90;;;8.15;;
40046;SDS011;31510;48.122;11.576;2022-11-30T13:41:16;21.48;;;9.43;;
40046;SDS011;31510;48.122;11.576;2022-11-30T13:43:44;16.50;;;8.30;;
40046;SDS011;31510;48.122;11.576;2022-11-30T13:46:15;17.27;;;8.95;;
40046;SDS011;31510;48.122;11.576;2022-11-30T13:48:43;16.75;;;8.85;;
40046;SDS011;31510;48.122;11.576;2022-11-30T13:51:09;15.95;;;7.70;;
40046;SDS011;31510;48.122;11.576;2022-11-30T13:53:36;21.13;;;10.25;;
40046;SDS011;31510;48.122;11.576;2022-11-30T14:01:48;21.90;;;11.15;;
40046;SDS011;31510;48.122;11.576;2022-11-30T14:06:47;21.55;;;10.88;;
40046;SDS011;31510;48.122;11.576;2022-11-30T14:09:15;22.45;;;10.77;;
40046;SDS011;31510;48.122;11.576;2022-11-30T14:14:59;22.95;;;11.05;;
40046;SDS011;31510;48.122;11.576;2022-11-30T14:17:25;20.98;;;10.38;;
40046;SDS011;31510;48.122;11.576;2022-11-30T14:20:01;24.95;;;11.90;;
40046;SDS011;31510;48.122;11.576;2022-11-30T14:22:38;20.63;;;10.35;;
40046;SDS011;31510;48.122;11.576;2022-11-30T14:25:05;21.48;;;10.77;;
40046;SDS011;31510;48.122;11.576;2022-11-30T14:27:37;23.80;;;11.20;;
40046;SDS011;31510;48.122;11.576;2022-11-30T14:30:03;23.52;;;11.68;;
40046;SDS011;31510;48.122;11.576;2022-11-30T14:32:32;26.58;;;12.02;;
40046;SDS011;31510;48.122;11.576;2022-11-30T14:35:11;26.83;;;11.38;;
40046;SDS011;31510;48.122;11.576;2022-11-30T14:37:44;27.80;;;12.70;;
40046;SDS011;31510;48.122;11.576;2022-11-30T14:40:16;24.98;;;13.80;;
40046;SDS011;31510;48.122;11.576;2022-11-30T14:43:02;25.40;;;12.35;;
40046;SDS011;31510;48.122;11.576;2022-11-30T14:45:29;25.25;;;12.48;;
40046;SDS011;31510;48.122;11.576;2022-11-30T14:48:04;25.77;;;13.05;;
40046;SDS011;31510;48.122;11.576;2022-11-30T14:50:34;23.98;;;12.30;;
40046;SDS011;31510;48.122;11.576;2022-11-30T14:55:51;28.13;;;15.57;;
40046;SDS011;31510;48.122;11.576;2022-11-30T15:01:15;22.70;;;13.02;;
40046;SDS011;31510;48.122;11.576;2022-11-30T15:03:44;26.70;;;13.43;;
40046;SDS011;31510;48.122;11.576;2022-11-30T15:06:14;26.98;;;13.45;;
40046;SDS011;31510;48.122;11.576;2022-11-30T15:09:00;27.33;;;13.68;;
40046;SDS011;31510;48.122;11.576;2022-11-30T15:11:26;31.02;;;14.05;;
40046;SDS011;31510;48.122;11.576;2022-11-30T15:13:53;24.60;;;12.68;;
40046;SDS011;31510;48.122;11.576;2022-11-30T15:16:24;24.70;;;12.38;;
40046;SDS011;31510;48.122;11.576;2022-11-30T15:18:53;26.75;;;12.48;;
40046;SDS011;31510;48.122;11.576;2022-11-30T15:21:21;28.30;;;13.52;;
40046;SDS011;31510;48.122;11.576;2022-11-30T15:23:48;23.85;;;12.00;;
40046;SDS011;31510;48.122;11.576;2022-11-30T15:26:18;26.65;;;12.82;;
40046;SDS011;31510;48.122;11.576;2022-11-30T15:29:06;27.15;;;13.07;;
40046;SDS011;31510;48.122;11.576;2022-11-30T15:31:41;27.52;;;14.40;;
40046;SDS011;31510;48.122;11.576;2022-11-30T15:34:25;23.48;;;12.15;;
40046;SDS011;31510;48.122;11.576;2022-11-30T15:36:57;24.83;;;13.77;;
40046;SDS011;31510;48.122;11.576;2022-11-30T15:39:24;30.65;;;12.85;;
40046;SDS011;31510;48.122;11.576;2022-11-30T15:42:01;22.83;;;12.82;;
40046;SDS011;31510;48.122;11.576;2022-11-30T15:44:41;26.00;;;13.30;;
40046;SDS011;31510;48.122;11.576;2022-11-30T15:47:22;24.48;;;13.75;;
40046;SDS011;31510;48.122;11.576;2022-11-30T15:49:59;23.00;;;12.35;;
40046;SDS011;31510;48.122;11.576;2022-11-30T15:52:26;25.45;;;12.95;;
40046;SDS011;31510;48.122;11.576;2022-11-30T15:54:54;24.92;;;13.35;;
40046;SDS011;31510;48.122;11.576;2022-11-30T15:57:21;25.00;;;13.45;;
40046;SDS011;31510;48.122;11.576;2022-11-30T16:02:37;25.38;;;12.20;;
40046;SDS011;31510;48.122;11.576;2022-11-30T16:05:03;29.67;;;14.35;;
40046;SDS011;31510;48.122;11.576;2022-11-30T16:07:50;27.08;;;15.13;;
40046;SDS011;31510;48.122;11.576;2022-11-30T16:10:22;25.83;;;13.35;;
40046;SDS011;31510;48.122;11.576;2022-11-30T16:12:50;30.58;;;14.32;;
40046;SDS011;31510;48.122;11.576;2022-11-30T16:17:42;28.50;;;14.45;;
40046;SDS011;31510;48.122;11.576;2022-11-30T16:20:09;25.30;;;14.13;;
40046;SDS011;31510;48.122;11.576;2022-11-30T16:22:37;27.08;;;13.88;;
40046;SDS011;31510;48.122;11.576;2022-11-30T16:25:05;26.83;;;14.15;;
40046;SDS011;31510;48.122;11.576;2022-11-30T16:27:31;28.13;;;13.48;;
40046;SDS011;31510;48.122;11.576;2022-11-30T16:29:56;23.23;;;12.32;;
40046;SDS011;31510;48.122;11.576;2022-11-30T16:32:21;27.17;;;15.00;;
40046;SDS011;31510;48.122;11.576;2022-11-30T16:34:46;27.33;;;13.23;;
40046;SDS011;31510;48.122;11.576;2022-11-30T16:37:12;28.63;;;14.13;;
40046;SDS011;31510;48.122;11.576;2022-11-30T16:39:38;28.63;;;13.77;;
40046;SDS011;31510;48.122;11.576;2022-11-30T16:42:04;30.50;;;14.95;;
40046;SDS011;31510;48.122;11.576;2022-11-30T16:44:29;29.67;;;13.73;;
40046;SDS011;31510;48.122;11.576;2022-11-30T16:46:54;56.70;;;25.88;;
40046;SDS011;31510;48.122;11.576;2022-11-30T16:49:20;49.80;;;20.77;;
40046;SDS011;31510;48.122;11.576;2022-11-30T16:51:46;29.45;;;16.05;;
40046;SDS011;31510;48.122;11.576;2022-11-30T16:54:12;30.00;;;14.27;;
40046;SDS011;31510;48.122;11.576;2022-11-30T16:56:39;27.15;;;12.85;;